Terminal Aerodrome Forecast
Issued by NWS

Home | Current Version | Previous Version | Text Only | Print | Product List | Glossary On
Versions: 1 2 3 4 5 6 7 8 9 10 11 12 13 14 15 16 17 18 19 20 21 22 23 24 25 26 27 28 29 30 31
000
FTUS43 KDLH 041600 AAC
TAFHYR
TAF AMD
KHYR 041613Z 0416/0512 30009G14KT 5SM HZ OVC025
      TEMPO 0416/0418 2SM HZ
     FM041800 29009G15KT P6SM BKN030
     FM050000 30003KT P6SM SCT035=

USA.gov is the U.S. government's official web portal to all federal, state and local government web resources and services.